sensor_id;sensor_type;location;lat;lon;timestamp;P1;durP1;ratioP1;P2;durP2;ratioP2
16667;SDS011;8447;52.630;4.734;2022-09-09T00:00:44;3.93;;;1.63;;
16667;SDS011;8447;52.630;4.734;2022-09-09T00:03:14;2.60;;;2.13;;
16667;SDS011;8447;52.630;4.734;2022-09-09T00:05:44;3.80;;;2.10;;
16667;SDS011;8447;52.630;4.734;2022-09-09T00:08:15;3.80;;;1.97;;
16667;SDS011;8447;52.630;4.734;2022-09-09T00:10:43;3.43;;;2.13;;
16667;SDS011;8447;52.630;4.734;2022-09-09T00:13:13;3.30;;;1.57;;
16667;SDS011;8447;52.630;4.734;2022-09-09T00:15:43;5.00;;;2.20;;
16667;SDS011;8447;52.630;4.734;2022-09-09T00:18:14;4.47;;;1.90;;
16667;SDS011;8447;52.630;4.734;2022-09-09T00:20:43;5.50;;;2.70;;
16667;SDS011;8447;52.630;4.734;2022-09-09T00:23:12;7.30;;;1.90;;
16667;SDS011;8447;52.630;4.734;2022-09-09T00:25:42;4.17;;;2.07;;
16667;SDS011;8447;52.630;4.734;2022-09-09T00:28:13;3.47;;;1.80;;
16667;SDS011;8447;52.630;4.734;2022-09-09T00:30:42;3.87;;;1.33;;
16667;SDS011;8447;52.630;4.734;2022-09-09T00:33:09;4.43;;;1.97;;
16667;SDS011;8447;52.630;4.734;2022-09-09T00:35:41;5.17;;;2.23;;
16667;SDS011;8447;52.630;4.734;2022-09-09T00:38:10;4.67;;;2.33;;
16667;SDS011;8447;52.630;4.734;2022-09-09T00:40:41;3.87;;;1.97;;
16667;SDS011;8447;52.630;4.734;2022-09-09T00:43:18;3.73;;;2.10;;
16667;SDS011;8447;52.630;4.734;2022-09-09T00:48:33;4.30;;;2.83;;
16667;SDS011;8447;52.630;4.734;2022-09-09T00:51:03;3.30;;;1.93;;
16667;SDS011;8447;52.630;4.734;2022-09-09T00:53:31;5.17;;;2.37;;
16667;SDS011;8447;52.630;4.734;2022-09-09T00:56:06;3.63;;;2.33;;
16667;SDS011;8447;52.630;4.734;2022-09-09T00:58:36;5.87;;;3.27;;
16667;SDS011;8447;52.630;4.734;2022-09-09T01:01:03;3.07;;;1.87;;
16667;SDS011;8447;52.630;4.734;2022-09-09T01:03:33;2.30;;;2.07;;
16667;SDS011;8447;52.630;4.734;2022-09-09T01:06:01;3.53;;;2.10;;
16667;SDS011;8447;52.630;4.734;2022-09-09T01:08:34;4.83;;;2.80;;
16667;SDS011;8447;52.630;4.734;2022-09-09T01:11:05;5.83;;;3.03;;
16667;SDS011;8447;52.630;4.734;2022-09-09T01:13:34;3.47;;;2.17;;
16667;SDS011;8447;52.630;4.734;2022-09-09T01:16:03;3.17;;;2.43;;
16667;SDS011;8447;52.630;4.734;2022-09-09T01:18:31;6.87;;;3.00;;
16667;SDS011;8447;52.630;4.734;2022-09-09T01:21:02;5.17;;;2.70;;
16667;SDS011;8447;52.630;4.734;2022-09-09T01:23:34;5.80;;;2.60;;
16667;SDS011;8447;52.630;4.734;2022-09-09T01:26:08;3.77;;;2.67;;
16667;SDS011;8447;52.630;4.734;2022-09-09T01:28:36;5.17;;;3.10;;
16667;SDS011;8447;52.630;4.734;2022-09-09T01:31:03;4.20;;;1.03;;
16667;SDS011;8447;52.630;4.734;2022-09-09T01:33:30;4.00;;;2.57;;
16667;SDS011;8447;52.630;4.734;2022-09-09T01:35:57;4.20;;;2.80;;
16667;SDS011;8447;52.630;4.734;2022-09-09T01:38:25;3.23;;;2.90;;
16667;SDS011;8447;52.630;4.734;2022-09-09T01:40:52;3.27;;;2.27;;
16667;SDS011;8447;52.630;4.734;2022-09-09T01:43:20;3.83;;;2.93;;
16667;SDS011;8447;52.630;4.734;2022-09-09T01:45:47;4.50;;;2.80;;
16667;SDS011;8447;52.630;4.734;2022-09-09T01:48:15;6.03;;;3.30;;
16667;SDS011;8447;52.630;4.734;2022-09-09T01:50:42;5.43;;;2.60;;
16667;SDS011;8447;52.630;4.734;2022-09-09T01:53:08;3.13;;;2.50;;
16667;SDS011;8447;52.630;4.734;2022-09-09T01:55:37;6.00;;;3.43;;
16667;SDS011;8447;52.630;4.734;2022-09-09T01:58:11;6.00;;;2.63;;
16667;SDS011;8447;52.630;4.734;2022-09-09T02:00:43;6.87;;;3.37;;
16667;SDS011;8447;52.630;4.734;2022-09-09T02:03:14;5.37;;;3.47;;
16667;SDS011;8447;52.630;4.734;2022-09-09T02:05:44;4.10;;;3.60;;
16667;SDS011;8447;52.630;4.734;2022-09-09T02:08:14;5.00;;;3.40;;
16667;SDS011;8447;52.630;4.734;2022-09-09T02:10:45;6.43;;;3.83;;
16667;SDS011;8447;52.630;4.734;2022-09-09T02:13:13;5.77;;;3.00;;
16667;SDS011;8447;52.630;4.734;2022-09-09T02:15:42;5.93;;;3.80;;
16667;SDS011;8447;52.630;4.734;2022-09-09T02:18:12;6.40;;;3.90;;
16667;SDS011;8447;52.630;4.734;2022-09-09T02:20:40;1.90;;;1.37;;
16667;SDS011;8447;52.630;4.734;2022-09-09T02:23:08;2.53;;;2.13;;
16667;SDS011;8447;52.630;4.734;2022-09-09T02:25:35;4.67;;;4.23;;
16667;SDS011;8447;52.630;4.734;2022-09-09T02:28:03;7.53;;;4.00;;
16667;SDS011;8447;52.630;4.734;2022-09-09T02:30:30;5.13;;;4.60;;
16667;SDS011;8447;52.630;4.734;2022-09-09T02:32:59;4.67;;;4.17;;
16667;SDS011;8447;52.630;4.734;2022-09-09T02:35:28;7.07;;;4.90;;
16667;SDS011;8447;52.630;4.734;2022-09-09T02:37:56;6.10;;;4.73;;
16667;SDS011;8447;52.630;4.734;2022-09-09T02:40:25;7.50;;;5.17;;
16667;SDS011;8447;52.630;4.734;2022-09-09T02:42:51;9.03;;;5.33;;
16667;SDS011;8447;52.630;4.734;2022-09-09T02:45:20;7.13;;;4.60;;
16667;SDS011;8447;52.630;4.734;2022-09-09T02:47:50;4.47;;;3.50;;
16667;SDS011;8447;52.630;4.734;2022-09-09T02:50:21;4.47;;;2.57;;
16667;SDS011;8447;52.630;4.734;2022-09-09T02:52:53;7.73;;;5.70;;
16667;SDS011;8447;52.630;4.734;2022-09-09T02:55:24;7.90;;;5.53;;
16667;SDS011;8447;52.630;4.734;2022-09-09T02:57:54;10.63;;;7.10;;
16667;SDS011;8447;52.630;4.734;2022-09-09T03:00:24;7.97;;;6.00;;
16667;SDS011;8447;52.630;4.734;2022-09-09T03:02:52;10.80;;;6.80;;
16667;SDS011;8447;52.630;4.734;2022-09-09T03:05:19;10.43;;;6.97;;
16667;SDS011;8447;52.630;4.734;2022-09-09T03:07:45;9.17;;;5.20;;
16667;SDS011;8447;52.630;4.734;2022-09-09T03:10:13;9.70;;;3.90;;
16667;SDS011;8447;52.630;4.734;2022-09-09T03:12:39;10.63;;;6.33;;
16667;SDS011;8447;52.630;4.734;2022-09-09T03:15:06;7.20;;;5.87;;
16667;SDS011;8447;52.630;4.734;2022-09-09T03:17:33;9.07;;;6.20;;
16667;SDS011;8447;52.630;4.734;2022-09-09T03:20:00;12.33;;;6.63;;
16667;SDS011;8447;52.630;4.734;2022-09-09T03:22:27;12.87;;;6.87;;
16667;SDS011;8447;52.630;4.734;2022-09-09T03:24:53;12.13;;;5.97;;
16667;SDS011;8447;52.630;4.734;2022-09-09T03:27:21;11.40;;;5.43;;
16667;SDS011;8447;52.630;4.734;2022-09-09T03:29:47;9.73;;;5.73;;
16667;SDS011;8447;52.630;4.734;2022-09-09T03:32:16;11.63;;;5.97;;
16667;SDS011;8447;52.630;4.734;2022-09-09T03:34:43;7.47;;;5.37;;
16667;SDS011;8447;52.630;4.734;2022-09-09T03:37:09;8.80;;;4.27;;
16667;SDS011;8447;52.630;4.734;2022-09-09T03:39:36;9.77;;;5.53;;
16667;SDS011;8447;52.630;4.734;2022-09-09T03:42:02;4.90;;;4.00;;
16667;SDS011;8447;52.630;4.734;2022-09-09T03:44:30;8.13;;;6.97;;
16667;SDS011;8447;52.630;4.734;2022-09-09T03:46:56;9.50;;;7.13;;
16667;SDS011;8447;52.630;4.734;2022-09-09T03:49:25;7.60;;;6.20;;
16667;SDS011;8447;52.630;4.734;2022-09-09T03:51:52;16.27;;;6.40;;
16667;SDS011;8447;52.630;4.734;2022-09-09T03:54:18;10.07;;;6.00;;
16667;SDS011;8447;52.630;4.734;2022-09-09T03:56:45;10.10;;;5.97;;
16667;SDS011;8447;52.630;4.734;2022-09-09T03:59:11;10.20;;;6.50;;
16667;SDS011;8447;52.630;4.734;2022-09-09T04:01:40;8.27;;;6.03;;
16667;SDS011;8447;52.630;4.734;2022-09-09T04:04:06;8.90;;;6.30;;
16667;SDS011;8447;52.630;4.734;2022-09-09T04:06:34;9.77;;;6.90;;
16667;SDS011;8447;52.630;4.734;2022-09-09T04:09:00;9.17;;;6.73;;
16667;SDS011;8447;52.630;4.734;2022-09-09T04:11:28;8.40;;;5.33;;
16667;SDS011;8447;52.630;4.734;2022-09-09T04:13:54;7.03;;;5.53;;
16667;SDS011;8447;52.630;4.734;2022-09-09T04:16:20;7.37;;;5.73;;
16667;SDS011;8447;52.630;4.734;2022-09-09T04:18:48;9.43;;;5.97;;
16667;SDS011;8447;52.630;4.734;2022-09-09T04:21:14;7.27;;;4.87;;
16667;SDS011;8447;52.630;4.734;2022-09-09T04:23:42;8.90;;;4.70;;
16667;SDS011;8447;52.630;4.734;2022-09-09T04:26:08;9.80;;;4.90;;
16667;SDS011;8447;52.630;4.734;2022-09-09T04:28:35;10.50;;;5.10;;
16667;SDS011;8447;52.630;4.734;2022-09-09T04:31:06;8.93;;;4.43;;
16667;SDS011;8447;52.630;4.734;2022-09-09T04:33:32;6.30;;;4.37;;
16667;SDS011;8447;52.630;4.734;2022-09-09T04:36:00;6.60;;;3.90;;
16667;SDS011;8447;52.630;4.734;2022-09-09T04:38:27;8.97;;;4.83;;
16667;SDS011;8447;52.630;4.734;2022-09-09T04:40:53;7.40;;;5.10;;
16667;SDS011;8447;52.630;4.734;2022-09-09T04:43:20;8.90;;;4.50;;
16667;SDS011;8447;52.630;4.734;2022-09-09T04:45:47;6.73;;;4.40;;
16667;SDS011;8447;52.630;4.734;2022-09-09T04:48:14;8.60;;;3.67;;
16667;SDS011;8447;52.630;4.734;2022-09-09T04:50:40;7.97;;;4.20;;
16667;SDS011;8447;52.630;4.734;2022-09-09T04:53:08;9.80;;;4.10;;
16667;SDS011;8447;52.630;4.734;2022-09-09T04:55:35;3.90;;;3.20;;
16667;SDS011;8447;52.630;4.734;2022-09-09T04:58:02;6.30;;;4.03;;
16667;SDS011;8447;52.630;4.734;2022-09-09T05:00:29;9.23;;;4.63;;
16667;SDS011;8447;52.630;4.734;2022-09-09T05:02:55;8.87;;;3.50;;
16667;SDS011;8447;52.630;4.734;2022-09-09T05:05:21;4.93;;;3.60;;
16667;SDS011;8447;52.630;4.734;2022-09-09T05:07:48;7.87;;;4.27;;
16667;SDS011;8447;52.630;4.734;2022-09-09T05:10:16;8.73;;;4.23;;
16667;SDS011;8447;52.630;4.734;2022-09-09T05:12:43;7.00;;;4.20;;
16667;SDS011;8447;52.630;4.734;2022-09-09T05:15:17;4.23;;;3.23;;
16667;SDS011;8447;52.630;4.734;2022-09-09T05:17:45;10.33;;;5.23;;
16667;SDS011;8447;52.630;4.734;2022-09-09T05:20:12;8.47;;;4.03;;
16667;SDS011;8447;52.630;4.734;2022-09-09T05:22:38;5.57;;;4.10;;
16667;SDS011;8447;52.630;4.734;2022-09-09T05:25:05;3.83;;;2.73;;
16667;SDS011;8447;52.630;4.734;2022-09-09T05:27:34;6.10;;;4.13;;
16667;SDS011;8447;52.630;4.734;2022-09-09T05:30:00;4.83;;;2.13;;
16667;SDS011;8447;52.630;4.734;2022-09-09T05:32:27;3.67;;;3.23;;
16667;SDS011;8447;52.630;4.734;2022-09-09T05:34:57;5.47;;;3.50;;
16667;SDS011;8447;52.630;4.734;2022-09-09T05:37:24;6.27;;;3.47;;
16667;SDS011;8447;52.630;4.734;2022-09-09T05:39:50;7.93;;;3.73;;
16667;SDS011;8447;52.630;4.734;2022-09-09T05:42:16;7.37;;;4.10;;
16667;SDS011;8447;52.630;4.734;2022-09-09T05:44:44;7.10;;;2.93;;
16667;SDS011;8447;52.630;4.734;2022-09-09T05:47:10;7.17;;;3.97;;
16667;SDS011;8447;52.630;4.734;2022-09-09T05:49:37;4.10;;;1.70;;
16667;SDS011;8447;52.630;4.734;2022-09-09T05:52:03;9.20;;;3.40;;
16667;SDS011;8447;52.630;4.734;2022-09-09T05:54:30;6.30;;;3.40;;
16667;SDS011;8447;52.630;4.734;2022-09-09T05:56:57;19.10;;;4.00;;
16667;SDS011;8447;52.630;4.734;2022-09-09T05:59:24;7.33;;;3.53;;
16667;SDS011;8447;52.630;4.734;2022-09-09T06:01:51;8.07;;;3.10;;
16667;SDS011;8447;52.630;4.734;2022-09-09T06:04:19;4.60;;;2.33;;
16667;SDS011;8447;52.630;4.734;2022-09-09T06:06:49;7.40;;;2.90;;
16667;SDS011;8447;52.630;4.734;2022-09-09T06:09:15;4.60;;;2.53;;
16667;SDS011;8447;52.630;4.734;2022-09-09T06:11:42;2.83;;;2.47;;
16667;SDS011;8447;52.630;4.734;2022-09-09T06:14:09;5.90;;;2.53;;
16667;SDS011;8447;52.630;4.734;2022-09-09T06:16:35;7.00;;;2.57;;
16667;SDS011;8447;52.630;4.734;2022-09-09T06:19:04;6.73;;;2.23;;
16667;SDS011;8447;52.630;4.734;2022-09-09T06:21:31;4.90;;;2.60;;
16667;SDS011;8447;52.630;4.734;2022-09-09T06:23:59;3.13;;;2.20;;
16667;SDS011;8447;52.630;4.734;2022-09-09T06:26:25;2.90;;;1.53;;
16667;SDS011;8447;52.630;4.734;2022-09-09T06:28:52;3.33;;;1.97;;
16667;SDS011;8447;52.630;4.734;2022-09-09T06:31:20;6.57;;;2.27;;
16667;SDS011;8447;52.630;4.734;2022-09-09T06:33:46;6.43;;;2.30;;
16667;SDS011;8447;52.630;4.734;2022-09-09T06:36:16;3.50;;;1.00;;
16667;SDS011;8447;52.630;4.734;2022-09-09T06:38:43;7.67;;;2.10;;
16667;SDS011;8447;52.630;4.734;2022-09-09T06:41:10;5.63;;;1.70;;
16667;SDS011;8447;52.630;4.734;2022-09-09T06:43:37;8.13;;;2.30;;
16667;SDS011;8447;52.630;4.734;2022-09-09T06:46:04;7.60;;;2.60;;
16667;SDS011;8447;52.630;4.734;2022-09-09T06:48:31;8.37;;;2.27;;
16667;SDS011;8447;52.630;4.734;2022-09-09T06:51:01;3.77;;;1.77;;
16667;SDS011;8447;52.630;4.734;2022-09-09T06:53:29;4.50;;;2.00;;
16667;SDS011;8447;52.630;4.734;2022-09-09T06:55:58;4.20;;;2.40;;
16667;SDS011;8447;52.630;4.734;2022-09-09T06:58:25;3.17;;;1.80;;
16667;SDS011;8447;52.630;4.734;2022-09-09T07:00:51;6.83;;;2.03;;
16667;SDS011;8447;52.630;4.734;2022-09-09T07:03:17;4.50;;;1.40;;
16667;SDS011;8447;52.630;4.734;2022-09-09T07:05:53;6.47;;;2.27;;
16667;SDS011;8447;52.630;4.734;2022-09-09T07:08:20;9.47;;;1.40;;
16667;SDS011;8447;52.630;4.734;2022-09-09T07:10:48;4.97;;;1.70;;
16667;SDS011;8447;52.630;4.734;2022-09-09T07:13:14;4.63;;;1.90;;
16667;SDS011;8447;52.630;4.734;2022-09-09T07:15:41;5.87;;;2.50;;
16667;SDS011;8447;52.630;4.734;2022-09-09T07:18:07;4.87;;;1.80;;
16667;SDS011;8447;52.630;4.734;2022-09-09T07:20:35;5.47;;;1.63;;
16667;SDS011;8447;52.630;4.734;2022-09-09T07:23:01;7.70;;;2.50;;
16667;SDS011;8447;52.630;4.734;2022-09-09T07:25:27;4.20;;;1.90;;
16667;SDS011;8447;52.630;4.734;2022-09-09T07:27:57;4.13;;;2.40;;
16667;SDS011;8447;52.630;4.734;2022-09-09T07:30:23;5.60;;;2.50;;
16667;SDS011;8447;52.630;4.734;2022-09-09T07:32:50;12.70;;;2.73;;
16667;SDS011;8447;52.630;4.734;2022-09-09T07:35:16;4.43;;;2.17;;
16667;SDS011;8447;52.630;4.734;2022-09-09T07:37:43;7.83;;;3.53;;
16667;SDS011;8447;52.630;4.734;2022-09-09T07:40:10;6.70;;;2.93;;
16667;SDS011;8447;52.630;4.734;2022-09-09T07:42:36;5.53;;;3.00;;
16667;SDS011;8447;52.630;4.734;2022-09-09T07:45:05;4.93;;;2.70;;
16667;SDS011;8447;52.630;4.734;2022-09-09T07:47:31;6.73;;;2.67;;
16667;SDS011;8447;52.630;4.734;2022-09-09T07:49:58;6.67;;;2.80;;
16667;SDS011;8447;52.630;4.734;2022-09-09T07:52:24;7.17;;;3.10;;
16667;SDS011;8447;52.630;4.734;2022-09-09T07:54:52;8.80;;;3.03;;
16667;SDS011;8447;52.630;4.734;2022-09-09T07:57:18;8.10;;;3.47;;
16667;SDS011;8447;52.630;4.734;2022-09-09T07:59:45;8.43;;;3.40;;
16667;SDS011;8447;52.630;4.734;2022-09-09T08:02:13;5.90;;;3.10;;
16667;SDS011;8447;52.630;4.734;2022-09-09T08:04:39;8.87;;;3.10;;
16667;SDS011;8447;52.630;4.734;2022-09-09T08:07:05;5.90;;;3.47;;
16667;SDS011;8447;52.630;4.734;2022-09-09T08:09:32;5.70;;;2.57;;
16667;SDS011;8447;52.630;4.734;2022-09-09T08:11:58;5.33;;;2.63;;
16667;SDS011;8447;52.630;4.734;2022-09-09T08:14:26;5.77;;;2.10;;
16667;SDS011;8447;52.630;4.734;2022-09-09T08:16:53;10.80;;;2.90;;
16667;SDS011;8447;52.630;4.734;2022-09-09T08:19:21;5.10;;;2.70;;
16667;SDS011;8447;52.630;4.734;2022-09-09T08:21:47;5.83;;;2.73;;
16667;SDS011;8447;52.630;4.734;2022-09-09T08:24:14;6.77;;;2.63;;
16667;SDS011;8447;52.630;4.734;2022-09-09T08:26:41;6.60;;;2.30;;
16667;SDS011;8447;52.630;4.734;2022-09-09T08:29:08;7.63;;;2.37;;
16667;SDS011;8447;52.630;4.734;2022-09-09T08:31:35;4.30;;;2.30;;
16667;SDS011;8447;52.630;4.734;2022-09-09T08:34:02;8.60;;;3.40;;
16667;SDS011;8447;52.630;4.734;2022-09-09T08:36:31;9.13;;;2.53;;
16667;SDS011;8447;52.630;4.734;2022-09-09T08:38:58;5.60;;;3.07;;
16667;SDS011;8447;52.630;4.734;2022-09-09T08:44:13;5.30;;;2.40;;
16667;SDS011;8447;52.630;4.734;2022-09-09T08:46:44;8.50;;;2.43;;
16667;SDS011;8447;52.630;4.734;2022-09-09T08:49:22;5.83;;;1.97;;
16667;SDS011;8447;52.630;4.734;2022-09-09T08:51:54;8.60;;;2.40;;
16667;SDS011;8447;52.630;4.734;2022-09-09T08:54:21;7.77;;;2.33;;
16667;SDS011;8447;52.630;4.734;2022-09-09T08:56:47;7.27;;;2.70;;
16667;SDS011;8447;52.630;4.734;2022-09-09T08:59:15;5.87;;;2.10;;
16667;SDS011;8447;52.630;4.734;2022-09-09T09:01:50;4.47;;;2.03;;
16667;SDS011;8447;52.630;4.734;2022-09-09T09:07:18;6.50;;;2.60;;
16667;SDS011;8447;52.630;4.734;2022-09-09T09:09:50;6.80;;;2.20;;
16667;SDS011;8447;52.630;4.734;2022-09-09T09:12:19;6.17;;;2.20;;
16667;SDS011;8447;52.630;4.734;2022-09-09T09:14:46;5.17;;;2.20;;
16667;SDS011;8447;52.630;4.734;2022-09-09T09:17:13;5.47;;;2.30;;
16667;SDS011;8447;52.630;4.734;2022-09-09T09:19:41;7.27;;;1.97;;
16667;SDS011;8447;52.630;4.734;2022-09-09T09:22:10;6.90;;;2.30;;
16667;SDS011;8447;52.630;4.734;2022-09-09T09:24:45;4.93;;;2.00;;
16667;SDS011;8447;52.630;4.734;2022-09-09T09:27:14;4.97;;;1.50;;
16667;SDS011;8447;52.630;4.734;2022-09-09T09:29:41;2.43;;;1.40;;
16667;SDS011;8447;52.630;4.734;2022-09-09T09:32:10;3.70;;;1.60;;
16667;SDS011;8447;52.630;4.734;2022-09-09T09:34:37;5.47;;;2.50;;
16667;SDS011;8447;52.630;4.734;2022-09-09T09:37:07;8.17;;;2.10;;
16667;SDS011;8447;52.630;4.734;2022-09-09T09:39:38;3.97;;;1.83;;
16667;SDS011;8447;52.630;4.734;2022-09-09T09:42:09;7.50;;;2.40;;
16667;SDS011;8447;52.630;4.734;2022-09-09T09:44:35;3.03;;;1.67;;
16667;SDS011;8447;52.630;4.734;2022-09-09T09:47:05;4.47;;;1.87;;
16667;SDS011;8447;52.630;4.734;2022-09-09T09:49:32;4.70;;;1.40;;
16667;SDS011;8447;52.630;4.734;2022-09-09T09:51:59;4.63;;;2.00;;
16667;SDS011;8447;52.630;4.734;2022-09-09T09:54:27;7.60;;;2.00;;
16667;SDS011;8447;52.630;4.734;2022-09-09T09:56:54;6.97;;;2.03;;
16667;SDS011;8447;52.630;4.734;2022-09-09T09:59:23;4.33;;;1.83;;
16667;SDS011;8447;52.630;4.734;2022-09-09T10:01:49;6.07;;;2.20;;
16667;SDS011;8447;52.630;4.734;2022-09-09T10:04:16;4.17;;;2.27;;
16667;SDS011;8447;52.630;4.734;2022-09-09T10:06:45;8.43;;;1.80;;
16667;SDS011;8447;52.630;4.734;2022-09-09T10:09:20;6.67;;;2.43;;
16667;SDS011;8447;52.630;4.734;2022-09-09T10:11:48;4.53;;;2.33;;
16667;SDS011;8447;52.630;4.734;2022-09-09T10:14:19;7.13;;;2.00;;
16667;SDS011;8447;52.630;4.734;2022-09-09T10:16:55;8.90;;;2.40;;
16667;SDS011;8447;52.630;4.734;2022-09-09T10:19:27;4.83;;;1.83;;
16667;SDS011;8447;52.630;4.734;2022-09-09T10:21:57;6.93;;;2.33;;
16667;SDS011;8447;52.630;4.734;2022-09-09T10:24:30;7.93;;;2.47;;
16667;SDS011;8447;52.630;4.734;2022-09-09T10:27:01;5.43;;;1.57;;
16667;SDS011;8447;52.630;4.734;2022-09-09T10:29:38;7.03;;;2.00;;
16667;SDS011;8447;52.630;4.734;2022-09-09T10:32:13;3.93;;;1.93;;
16667;SDS011;8447;52.630;4.734;2022-09-09T10:34:52;4.43;;;2.20;;
16667;SDS011;8447;52.630;4.734;2022-09-09T10:37:24;5.77;;;1.60;;
16667;SDS011;8447;52.630;4.734;2022-09-09T10:39:54;4.93;;;1.60;;
16667;SDS011;8447;52.630;4.734;2022-09-09T10:42:23;4.63;;;1.80;;
16667;SDS011;8447;52.630;4.734;2022-09-09T10:44:57;4.90;;;1.70;;
16667;SDS011;8447;52.630;4.734;2022-09-09T10:47:32;4.40;;;1.43;;
16667;SDS011;8447;52.630;4.734;2022-09-09T10:50:10;10.27;;;1.77;;
16667;SDS011;8447;52.630;4.734;2022-09-09T10:52:40;8.23;;;1.80;;
16667;SDS011;8447;52.630;4.734;2022-09-09T10:55:09;3.90;;;1.70;;
16667;SDS011;8447;52.630;4.734;2022-09-09T10:57:37;7.03;;;2.47;;
16667;SDS011;8447;52.630;4.734;2022-09-09T11:00:06;2.13;;;1.43;;
16667;SDS011;8447;52.630;4.734;2022-09-09T11:02:34;11.90;;;2.67;;
16667;SDS011;8447;52.630;4.734;2022-09-09T11:05:03;7.63;;;1.60;;
16667;SDS011;8447;52.630;4.734;2022-09-09T11:07:33;2.27;;;1.23;;
16667;SDS011;8447;52.630;4.734;2022-09-09T11:10:02;3.70;;;1.53;;
16667;SDS011;8447;52.630;4.734;2022-09-09T11:12:32;5.63;;;1.97;;
16667;SDS011;8447;52.630;4.734;2022-09-09T11:15:03;5.53;;;1.50;;
16667;SDS011;8447;52.630;4.734;2022-09-09T11:17:33;3.63;;;1.33;;
16667;SDS011;8447;52.630;4.734;2022-09-09T11:20:03;6.40;;;1.90;;
16667;SDS011;8447;52.630;4.734;2022-09-09T11:22:32;10.13;;;1.90;;
16667;SDS011;8447;52.630;4.734;2022-09-09T11:25:01;4.53;;;1.50;;
16667;SDS011;8447;52.630;4.734;2022-09-09T11:27:29;3.43;;;1.23;;
16667;SDS011;8447;52.630;4.734;2022-09-09T11:30:04;3.47;;;1.50;;
16667;SDS011;8447;52.630;4.734;2022-09-09T11:32:40;4.03;;;1.50;;
16667;SDS011;8447;52.630;4.734;2022-09-09T11:35:19;2.63;;;1.10;;
16667;SDS011;8447;52.630;4.734;2022-09-09T11:40:31;4.73;;;1.17;;
16667;SDS011;8447;52.630;4.734;2022-09-09T11:43:02;5.80;;;1.40;;
16667;SDS011;8447;52.630;4.734;2022-09-09T11:45:30;2.20;;;1.10;;
16667;SDS011;8447;52.630;4.734;2022-09-09T11:47:58;3.37;;;1.20;;
16667;SDS011;8447;52.630;4.734;2022-09-09T11:50:30;3.00;;;1.17;;
16667;SDS011;8447;52.630;4.734;2022-09-09T11:53:04;6.23;;;1.27;;
16667;SDS011;8447;52.630;4.734;2022-09-09T11:55:32;3.53;;;1.17;;
16667;SDS011;8447;52.630;4.734;2022-09-09T11:57:59;4.17;;;1.33;;
16667;SDS011;8447;52.630;4.734;2022-09-09T12:00:31;2.17;;;1.33;;
16667;SDS011;8447;52.630;4.734;2022-09-09T12:02:58;5.03;;;1.90;;
16667;SDS011;8447;52.630;4.734;2022-09-09T12:05:36;3.83;;;1.70;;
16667;SDS011;8447;52.630;4.734;2022-09-09T12:08:04;3.10;;;1.60;;
16667;SDS011;8447;52.630;4.734;2022-09-09T12:10:30;5.83;;;1.77;;
16667;SDS011;8447;52.630;4.734;2022-09-09T12:13:07;4.67;;;1.87;;
16667;SDS011;8447;52.630;4.734;2022-09-09T12:15:34;4.90;;;1.37;;
16667;SDS011;8447;52.630;4.734;2022-09-09T12:18:00;3.47;;;1.70;;
16667;SDS011;8447;52.630;4.734;2022-09-09T12:20:30;7.07;;;2.20;;
16667;SDS011;8447;52.630;4.734;2022-09-09T12:25:44;7.77;;;2.30;;
16667;SDS011;8447;52.630;4.734;2022-09-09T12:28:15;3.87;;;1.70;;
16667;SDS011;8447;52.630;4.734;2022-09-09T12:30:44;3.27;;;1.40;;
16667;SDS011;8447;52.630;4.734;2022-09-09T12:33:16;1.97;;;1.23;;
16667;SDS011;8447;52.630;4.734;2022-09-09T12:35:44;2.67;;;1.17;;
16667;SDS011;8447;52.630;4.734;2022-09-09T12:38:13;3.47;;;1.17;;
16667;SDS011;8447;52.630;4.734;2022-09-09T12:40:40;3.13;;;1.07;;
16667;SDS011;8447;52.630;4.734;2022-09-09T12:43:17;3.13;;;1.17;;
16667;SDS011;8447;52.630;4.734;2022-09-09T12:45:46;2.83;;;1.00;;
16667;SDS011;8447;52.630;4.734;2022-09-09T12:48:14;1.97;;;1.10;;
16667;SDS011;8447;52.630;4.734;2022-09-09T12:50:43;5.40;;;1.13;;
16667;SDS011;8447;52.630;4.734;2022-09-09T12:53:12;3.60;;;1.30;;
16667;SDS011;8447;52.630;4.734;2022-09-09T12:55:48;11.17;;;2.13;;
16667;SDS011;8447;52.630;4.734;2022-09-09T12:58:15;3.10;;;1.40;;
16667;SDS011;8447;52.630;4.734;2022-09-09T13:00:49;2.37;;;1.33;;
16667;SDS011;8447;52.630;4.734;2022-09-09T13:03:17;4.20;;;1.30;;
16667;SDS011;8447;52.630;4.734;2022-09-09T13:05:45;3.07;;;1.20;;
16667;SDS011;8447;52.630;4.734;2022-09-09T13:08:13;2.60;;;0.90;;
16667;SDS011;8447;52.630;4.734;2022-09-09T13:10:40;1.83;;;0.90;;
16667;SDS011;8447;52.630;4.734;2022-09-09T13:13:12;3.90;;;1.13;;
16667;SDS011;8447;52.630;4.734;2022-09-09T13:15:39;1.77;;;0.80;;
16667;SDS011;8447;52.630;4.734;2022-09-09T13:18:11;1.23;;;0.90;;
16667;SDS011;8447;52.630;4.734;2022-09-09T13:20:38;2.00;;;0.90;;
16667;SDS011;8447;52.630;4.734;2022-09-09T13:23:04;1.83;;;0.73;;
16667;SDS011;8447;52.630;4.734;2022-09-09T13:25:31;3.57;;;1.03;;
16667;SDS011;8447;52.630;4.734;2022-09-09T13:27:59;2.83;;;1.00;;
16667;SDS011;8447;52.630;4.734;2022-09-09T13:30:28;2.87;;;1.50;;
16667;SDS011;8447;52.630;4.734;2022-09-09T13:33:02;3.33;;;1.27;;
16667;SDS011;8447;52.630;4.734;2022-09-09T13:35:30;4.90;;;1.33;;
16667;SDS011;8447;52.630;4.734;2022-09-09T13:37:56;6.10;;;1.93;;
16667;SDS011;8447;52.630;4.734;2022-09-09T13:40:23;3.67;;;1.20;;
16667;SDS011;8447;52.630;4.734;2022-09-09T13:42:51;2.43;;;1.10;;
16667;SDS011;8447;52.630;4.734;2022-09-09T13:45:19;2.97;;;1.30;;
16667;SDS011;8447;52.630;4.734;2022-09-09T13:47:46;3.33;;;1.17;;
16667;SDS011;8447;52.630;4.734;2022-09-09T13:50:20;4.73;;;1.57;;
16667;SDS011;8447;52.630;4.734;2022-09-09T13:52:48;2.50;;;1.27;;
16667;SDS011;8447;52.630;4.734;2022-09-09T13:55:16;2.40;;;1.17;;
16667;SDS011;8447;52.630;4.734;2022-09-09T13:57:49;2.90;;;1.00;;
16667;SDS011;8447;52.630;4.734;2022-09-09T14:00:16;3.77;;;1.17;;
16667;SDS011;8447;52.630;4.734;2022-09-09T14:02:42;3.77;;;1.60;;
16667;SDS011;8447;52.630;4.734;2022-09-09T14:05:09;5.07;;;2.00;;
16667;SDS011;8447;52.630;4.734;2022-09-09T14:07:36;3.23;;;0.90;;
16667;SDS011;8447;52.630;4.734;2022-09-09T14:10:05;3.00;;;1.37;;
16667;SDS011;8447;52.630;4.734;2022-09-09T14:12:32;4.93;;;1.50;;
16667;SDS011;8447;52.630;4.734;2022-09-09T14:14:58;3.83;;;1.20;;
16667;SDS011;8447;52.630;4.734;2022-09-09T14:17:26;4.80;;;1.43;;
16667;SDS011;8447;52.630;4.734;2022-09-09T14:19:56;4.17;;;1.40;;
16667;SDS011;8447;52.630;4.734;2022-09-09T14:22:22;2.17;;;1.13;;
16667;SDS011;8447;52.630;4.734;2022-09-09T14:24:49;3.00;;;1.10;;
16667;SDS011;8447;52.630;4.734;2022-09-09T14:27:17;3.83;;;1.60;;
16667;SDS011;8447;52.630;4.734;2022-09-09T14:29:44;2.10;;;1.40;;
16667;SDS011;8447;52.630;4.734;2022-09-09T14:32:10;2.97;;;1.30;;
16667;SDS011;8447;52.630;4.734;2022-09-09T14:34:36;2.83;;;1.03;;
16667;SDS011;8447;52.630;4.734;2022-09-09T14:37:03;3.30;;;1.10;;
16667;SDS011;8447;52.630;4.734;2022-09-09T14:39:29;2.23;;;1.30;;
16667;SDS011;8447;52.630;4.734;2022-09-09T14:41:56;1.83;;;1.07;;
16667;SDS011;8447;52.630;4.734;2022-09-09T14:44:24;2.57;;;0.97;;
16667;SDS011;8447;52.630;4.734;2022-09-09T14:46:50;1.67;;;1.27;;
16667;SDS011;8447;52.630;4.734;2022-09-09T14:49:18;1.80;;;0.73;;
16667;SDS011;8447;52.630;4.734;2022-09-09T14:51:44;3.60;;;0.90;;
16667;SDS011;8447;52.630;4.734;2022-09-09T14:54:10;1.53;;;0.80;;
16667;SDS011;8447;52.630;4.734;2022-09-09T14:56:37;1.60;;;0.70;;
16667;SDS011;8447;52.630;4.734;2022-09-09T14:59:04;1.57;;;0.70;;
16667;SDS011;8447;52.630;4.734;2022-09-09T15:01:31;1.47;;;0.73;;
16667;SDS011;8447;52.630;4.734;2022-09-09T15:03:59;1.97;;;0.80;;
16667;SDS011;8447;52.630;4.734;2022-09-09T15:06:27;2.93;;;1.00;;
16667;SDS011;8447;52.630;4.734;2022-09-09T15:08:54;3.10;;;0.77;;
16667;SDS011;8447;52.630;4.734;2022-09-09T15:11:23;4.07;;;2.10;;
16667;SDS011;8447;52.630;4.734;2022-09-09T15:13:50;1.63;;;0.77;;
16667;SDS011;8447;52.630;4.734;2022-09-09T15:16:18;4.00;;;1.00;;
16667;SDS011;8447;52.630;4.734;2022-09-09T15:18:46;2.03;;;0.90;;
16667;SDS011;8447;52.630;4.734;2022-09-09T15:21:13;2.23;;;0.90;;